Time;durP1;ratioP1;P1;durP2;ratioP2;P2;SDS_P1;SDS_P2;PMS_P1;PMS_P2;Temp;Humidity;BMP_temperature;BMP_pressure;BME280_temperature;BME280_humidity;BME280_pressure;Samples;Min_cycle;Max_cycle;Signal;HPM_P1;HPM_P2
2022/09/11 00:02:11;;;;;;;4.87;3.43;;;;;;;;;;5050840;28;20597;-75
2022/09/11 00:04:37;;;;;;;3.40;3.17;;;;;;;;;;5050874;28;20684;-75
2022/09/11 00:07:04;;;;;;;2.87;2.40;;;;;;;;;;5050641;28;20213;-75
2022/09/11 00:09:31;;;;;;;2.93;2.73;;;;;;;;;;5050524;28;20210;-75
2022/09/11 00:11:59;;;;;;;3.70;3.40;;;;;;;;;;5050832;28;20226;-75
2022/09/11 00:14:27;;;;;;;4.53;2.87;;;;;;;;;;5050435;28;20205;-75
2022/09/11 00:16:54;;;;;;;3.67;3.03;;;;;;;;;;5050526;28;20202;-75
2022/09/11 00:19:21;;;;;;;2.73;2.53;;;;;;;;;;5050903;28;20206;-75
2022/09/11 00:21:49;;;;;;;3.00;2.80;;;;;;;;;;5050450;28;20201;-75
2022/09/11 00:24:16;;;;;;;2.77;2.50;;;;;;;;;;5050581;28;20233;-75
2022/09/11 00:26:46;;;;;;;2.53;2.33;;;;;;;;;;5050487;28;20209;-75
2022/09/11 00:29:14;;;;;;;2.87;2.27;;;;;;;;;;5050246;28;20209;-76
2022/09/11 00:31:41;;;;;;;2.53;2.33;;;;;;;;;;5037029;28;20198;-75
2022/09/11 00:34:08;;;;;;;2.43;2.27;;;;;;;;;;5050286;28;20202;-75
2022/09/11 00:36:40;;;;;;;2.93;2.73;;;;;;;;;;5049743;28;20723;-75
2022/09/11 00:39:06;;;;;;;3.43;3.13;;;;;;;;;;5050629;28;20343;-75
2022/09/11 00:41:35;;;;;;;3.40;2.50;;;;;;;;;;5050225;28;20193;-75
2022/09/11 00:44:03;;;;;;;3.07;2.87;;;;;;;;;;5050083;28;20224;-75
2022/09/11 00:46:39;;;;;;;3.33;2.70;;;;;;;;;;5050062;28;20202;-75
2022/09/11 00:49:17;;;;;;;3.27;2.90;;;;;;;;;;5050367;28;20202;-75
2022/09/11 00:51:46;;;;;;;3.10;2.90;;;;;;;;;;5050117;28;20209;-75
2022/09/11 00:54:16;;;;;;;4.07;2.57;;;;;;;;;;5050464;28;20555;-74
2022/09/11 00:56:43;;;;;;;3.40;3.10;;;;;;;;;;5049976;28;20288;-75
2022/09/11 00:59:11;;;;;;;2.77;2.57;;;;;;;;;;5050327;28;20684;-75
2022/09/11 01:01:39;;;;;;;2.80;2.57;;;;;;;;;;5050106;28;20201;-74
2022/09/11 01:04:06;;;;;;;2.90;2.67;;;;;;;;;;5050332;28;20194;-75
2022/09/11 01:06:33;;;;;;;1.87;1.77;;;;;;;;;;5049754;28;21296;-75
2022/09/11 01:09:00;;;;;;;2.40;2.20;;;;;;;;;;5049796;28;20213;-75
2022/09/11 01:11:36;;;;;;;3.20;2.07;;;;;;;;;;5050000;28;20201;-75
2022/09/11 01:14:12;;;;;;;2.63;2.43;;;;;;;;;;5049920;28;20202;-75
2022/09/11 01:16:44;;;;;;;2.20;2.10;;;;;;;;;;5049791;28;20263;-75
2022/09/11 01:19:39;;;;;;;3.07;2.80;;;;;;;;;;5050060;28;20202;-75
2022/09/11 01:22:38;;;;;;;3.03;2.83;;;;;;;;;;5049145;28;20205;-75
2022/09/11 01:25:18;;;;;;;2.53;2.33;;;;;;;;;;5037192;28;20202;-75
2022/09/11 01:27:49;;;;;;;3.10;2.70;;;;;;;;;;5049602;28;20205;-75
2022/09/11 01:30:17;;;;;;;2.83;2.53;;;;;;;;;;5049701;28;20726;-75
2022/09/11 01:32:58;;;;;;;4.17;2.20;;;;;;;;;;5049998;28;20308;-75
2022/09/11 01:35:27;;;;;;;2.70;2.50;;;;;;;;;;5049578;28;20204;-75
2022/09/11 01:37:57;;;;;;;3.23;2.93;;;;;;;;;;5049979;28;20583;-75
2022/09/11 01:40:27;;;;;;;3.37;3.07;;;;;;;;;;5049633;28;20209;-75
2022/09/11 01:43:05;;;;;;;2.67;2.43;;;;;;;;;;5049857;28;20201;-75
2022/09/11 01:45:32;;;;;;;3.80;2.90;;;;;;;;;;5049668;28;20614;-75
2022/09/11 01:48:01;;;;;;;3.13;2.83;;;;;;;;;;5049758;28;20217;-75
2022/09/11 01:50:29;;;;;;;4.10;2.97;;;;;;;;;;5053149;28;20699;-75
2022/09/11 01:52:58;;;;;;;3.43;2.90;;;;;;;;;;5053301;28;20229;-75
2022/09/11 01:55:30;;;;;;;2.73;2.53;;;;;;;;;;5053437;28;20208;-75
2022/09/11 01:58:01;;;;;;;2.70;2.50;;;;;;;;;;5053044;28;20198;-75
2022/09/11 02:00:29;;;;;;;2.50;2.30;;;;;;;;;;5053128;28;20206;-75
2022/09/11 02:03:00;;;;;;;3.40;2.87;;;;;;;;;;5053314;28;20250;-75
2022/09/11 02:05:30;;;;;;;2.70;2.50;;;;;;;;;;5052928;28;20213;-76
2022/09/11 02:07:59;;;;;;;4.17;2.93;;;;;;;;;;5053180;28;20654;-76
2022/09/11 02:10:29;;;;;;;3.40;3.10;;;;;;;;;;5052952;28;20558;-76
2022/09/11 02:13:01;;;;;;;2.80;2.60;;;;;;;;;;5053205;28;20249;-75
2022/09/11 02:15:34;;;;;;;2.87;2.67;;;;;;;;;;5052486;28;20209;-75
2022/09/11 02:18:04;;;;;;;3.87;3.47;;;;;;;;;;5053026;28;20639;-75
2022/09/11 02:20:31;;;;;;;2.43;2.23;;;;;;;;;;5053146;28;20676;-75
2022/09/11 02:22:57;;;;;;;3.77;2.87;;;;;;;;;;5052753;28;20209;-75
2022/09/11 02:25:25;;;;;;;2.67;2.47;;;;;;;;;;5052867;28;20206;-76
2022/09/11 02:27:51;;;;;;;3.00;2.70;;;;;;;;;;5052663;28;20710;-76
2022/09/11 02:30:20;;;;;;;2.67;2.47;;;;;;;;;;5052292;28;20209;-76
2022/09/11 02:32:46;;;;;;;2.80;2.57;;;;;;;;;;5052823;28;20319;-76
2022/09/11 02:35:15;;;;;;;3.17;2.93;;;;;;;;;;5052234;28;20217;-75
2022/09/11 02:37:49;;;;;;;2.77;2.57;;;;;;;;;;5052874;28;20284;-76
2022/09/11 02:40:34;;;;;;;3.10;2.87;;;;;;;;;;5052632;28;20234;-75
2022/09/11 02:43:12;;;;;;;3.43;2.70;;;;;;;;;;5052165;28;20244;-75
2022/09/11 02:45:48;;;;;;;2.73;2.53;;;;;;;;;;5052333;28;20288;-76
2022/09/11 02:48:29;;;;;;;2.63;2.27;;;;;;;;;;5052322;28;20206;-75
2022/09/11 02:51:00;;;;;;;3.10;2.80;;;;;;;;;;5052158;28;20198;-75
2022/09/11 02:53:31;;;;;;;2.60;2.40;;;;;;;;;;5052086;28;20226;-75
2022/09/11 02:56:02;;;;;;;2.87;2.67;;;;;;;;;;5038276;28;20680;-75
2022/09/11 02:58:33;;;;;;;2.70;2.50;;;;;;;;;;5052295;28;20695;-75
2022/09/11 03:01:02;;;;;;;2.57;2.37;;;;;;;;;;5051441;28;20201;-76
2022/09/11 03:03:29;;;;;;;3.40;2.97;;;;;;;;;;5052027;28;20202;-75
2022/09/11 03:05:55;;;;;;;3.23;2.93;;;;;;;;;;5052025;28;20209;-75
2022/09/11 03:08:22;;;;;;;2.80;2.60;;;;;;;;;;5052196;28;20205;-76
2022/09/11 03:10:49;;;;;;;3.17;2.87;;;;;;;;;;5051655;28;20209;-75
2022/09/11 03:13:16;;;;;;;2.40;2.27;;;;;;;;;;5051950;28;20264;-75
2022/09/11 03:15:43;;;;;;;2.73;2.53;;;;;;;;;;5051756;28;20202;-75
2022/09/11 03:18:14;;;;;;;2.70;2.50;;;;;;;;;;5052010;28;20637;-76
2022/09/11 03:20:44;;;;;;;2.90;2.70;;;;;;;;;;5051568;28;20688;-75
2022/09/11 03:23:11;;;;;;;2.03;1.87;;;;;;;;;;5037824;28;20624;-76
2022/09/11 03:25:37;;;;;;;2.43;2.23;;;;;;;;;;5051623;28;20277;-75
2022/09/11 03:28:04;;;;;;;2.60;2.40;;;;;;;;;;5051619;28;21537;-75
2022/09/11 03:30:32;;;;;;;2.93;2.73;;;;;;;;;;5051383;28;20750;-75
2022/09/11 03:32:59;;;;;;;2.57;2.47;;;;;;;;;;5051214;28;20233;-75
2022/09/11 03:35:28;;;;;;;3.63;2.77;;;;;;;;;;5051642;28;20684;-75
2022/09/11 03:37:55;;;;;;;2.70;2.50;;;;;;;;;;5051285;28;20201;-75
2022/09/11 03:40:22;;;;;;;3.93;2.57;;;;;;;;;;5051137;28;20237;-75
2022/09/11 03:42:49;;;;;;;3.00;2.50;;;;;;;;;;5051481;28;20201;-75
2022/09/11 03:45:16;;;;;;;3.10;2.80;;;;;;;;;;5050735;28;20230;-75
2022/09/11 03:47:43;;;;;;;3.13;2.80;;;;;;;;;;5051840;28;20213;-75
2022/09/11 03:50:10;;;;;;;2.90;2.70;;;;;;;;;;5051060;28;20564;-75
2022/09/11 03:52:39;;;;;;;3.40;2.57;;;;;;;;;;5051043;28;20223;-76
2022/09/11 03:55:07;;;;;;;3.13;2.30;;;;;;;;;;5051169;28;20209;-75
2022/09/11 03:57:34;;;;;;;2.60;2.40;;;;;;;;;;5051200;28;20206;-75
2022/09/11 04:00:01;;;;;;;2.60;2.30;;;;;;;;;;5050926;28;20209;-75
2022/09/11 04:02:28;;;;;;;2.50;2.30;;;;;;;;;;5049698;28;20194;-75
2022/09/11 04:04:54;;;;;;;2.87;2.57;;;;;;;;;;5038090;28;20197;-75
2022/09/11 04:07:21;;;;;;;2.53;2.33;;;;;;;;;;5050883;28;20793;-75
2022/09/11 04:09:49;;;;;;;2.60;2.40;;;;;;;;;;5050794;28;20206;-75
2022/09/11 04:12:17;;;;;;;2.30;2.10;;;;;;;;;;5049933;28;20228;-75
2022/09/11 04:14:44;;;;;;;2.73;2.50;;;;;;;;;;5050351;28;20228;-75
2022/09/11 04:17:11;;;;;;;2.10;2.00;;;;;;;;;;5050273;28;20201;-76
2022/09/11 04:19:38;;;;;;;2.90;2.70;;;;;;;;;;5048110;28;20677;-76
2022/09/11 04:22:04;;;;;;;3.77;2.10;;;;;;;;;;5048881;28;20202;-75
2022/09/11 04:24:31;;;;;;;2.53;2.30;;;;;;;;;;5050143;28;20202;-76
2022/09/11 04:27:00;;;;;;;2.10;2.00;;;;;;;;;;5047522;28;20289;-75
2022/09/11 04:29:27;;;;;;;2.20;2.10;;;;;;;;;;5034888;28;20280;-76
2022/09/11 04:31:54;;;;;;;2.43;1.90;;;;;;;;;;5030672;28;20731;-76
2022/09/11 04:34:21;;;;;;;2.93;2.23;;;;;;;;;;5047624;28;20236;-76
2022/09/11 04:36:48;;;;;;;2.30;2.10;;;;;;;;;;5049624;28;20205;-75
2022/09/11 04:39:16;;;;;;;2.30;2.20;;;;;;;;;;5049681;28;20680;-76
2022/09/11 04:41:43;;;;;;;1.93;1.83;;;;;;;;;;5050283;28;20240;-75
2022/09/11 04:44:11;;;;;;;2.33;2.23;;;;;;;;;;5050193;28;20295;-76
2022/09/11 04:46:39;;;;;;;2.30;2.10;;;;;;;;;;5050334;28;20271;-75
2022/09/11 04:49:07;;;;;;;2.83;2.63;;;;;;;;;;5050632;28;20202;-75
2022/09/11 04:51:35;;;;;;;2.30;2.10;;;;;;;;;;5049159;28;20212;-76
2022/09/11 04:54:02;;;;;;;2.30;2.10;;;;;;;;;;5049926;28;20263;-75
2022/09/11 04:56:33;;;;;;;2.53;2.30;;;;;;;;;;5050383;28;20217;-75
2022/09/11 04:59:01;;;;;;;3.30;3.00;;;;;;;;;;5050567;28;20206;-76
2022/09/11 05:01:30;;;;;;;4.50;2.30;;;;;;;;;;5050291;28;20228;-76
2022/09/11 05:03:59;;;;;;;2.60;2.40;;;;;;;;;;5048282;28;20636;-76
2022/09/11 05:06:26;;;;;;;2.23;2.03;;;;;;;;;;5050122;28;20237;-76
2022/09/11 05:08:52;;;;;;;2.90;2.70;;;;;;;;;;5050260;28;20963;-76
2022/09/11 05:11:20;;;;;;;10.07;6.23;;;;;;;;;;5049530;28;20255;-76
2022/09/11 05:13:47;;;;;;;25.10;13.80;;;;;;;;;;5050431;28;20225;-76
2022/09/11 05:16:15;;;;;;;14.50;7.60;;;;;;;;;;5049760;28;20646;-76
2022/09/11 05:18:49;;;;;;;8.73;4.43;;;;;;;;;;5049651;28;20198;-76
2022/09/11 05:21:16;;;;;;;3.70;3.40;;;;;;;;;;5047699;28;20229;-76
2022/09/11 05:23:47;;;;;;;3.00;2.57;;;;;;;;;;5053084;28;20217;-75
2022/09/11 05:26:15;;;;;;;2.97;2.70;;;;;;;;;;5053787;28;20213;-76
2022/09/11 05:28:42;;;;;;;2.40;2.27;;;;;;;;;;5054448;28;20251;-76
2022/09/11 05:31:11;;;;;;;2.60;2.40;;;;;;;;;;5053705;28;20202;-76
2022/09/11 05:33:38;;;;;;;3.27;2.83;;;;;;;;;;5053659;28;20233;-76
2022/09/11 05:36:07;;;;;;;2.67;2.47;;;;;;;;;;5053653;28;20707;-76
2022/09/11 05:38:35;;;;;;;3.10;2.90;;;;;;;;;;5053851;28;20692;-76
2022/09/11 05:41:02;;;;;;;5.10;2.63;;;;;;;;;;5053137;28;20320;-76
2022/09/11 05:43:29;;;;;;;2.20;2.10;;;;;;;;;;5052784;28;20220;-76
2022/09/11 05:45:57;;;;;;;2.63;2.43;;;;;;;;;;5053754;28;20255;-76
2022/09/11 05:48:24;;;;;;;2.47;2.27;;;;;;;;;;5053297;28;20881;-76
2022/09/11 05:50:55;;;;;;;3.50;2.70;;;;;;;;;;5053481;28;20558;-76
2022/09/11 05:53:24;;;;;;;3.40;2.90;;;;;;;;;;5053448;28;20213;-76
2022/09/11 05:55:51;;;;;;;4.43;3.10;;;;;;;;;;5053135;28;20194;-76
2022/09/11 05:58:18;;;;;;;5.53;2.93;;;;;;;;;;5053681;28;20388;-76
2022/09/11 06:00:45;;;;;;;3.00;2.67;;;;;;;;;;5053294;28;20680;-76
2022/09/11 06:03:13;;;;;;;2.67;2.47;;;;;;;;;;5052587;28;20202;-76
2022/09/11 06:05:40;;;;;;;2.97;2.77;;;;;;;;;;5053165;28;20238;-76
2022/09/11 06:08:07;;;;;;;2.60;2.40;;;;;;;;;;5053086;28;20226;-76
2022/09/11 06:10:35;;;;;;;3.07;2.87;;;;;;;;;;5053582;28;20197;-76
2022/09/11 06:13:02;;;;;;;2.80;2.60;;;;;;;;;;5053080;28;20201;-76
2022/09/11 06:15:30;;;;;;;2.87;2.50;;;;;;;;;;5051635;28;20701;-76
2022/09/11 06:17:56;;;;;;;3.57;3.27;;;;;;;;;;5052899;28;20684;-76
2022/09/11 06:20:23;;;;;;;3.43;3.13;;;;;;;;;;5052910;28;20202;-76
2022/09/11 06:22:50;;;;;;;2.80;2.60;;;;;;;;;;5053009;28;20213;-76
2022/09/11 06:25:17;;;;;;;3.10;2.87;;;;;;;;;;5052478;28;20289;-76
2022/09/11 06:27:45;;;;;;;3.47;3.17;;;;;;;;;;5049524;28;20252;-76
2022/09/11 06:30:13;;;;;;;3.03;2.83;;;;;;;;;;5043928;28;20210;-76
2022/09/11 06:32:40;;;;;;;2.90;2.70;;;;;;;;;;5042146;28;20225;-77
2022/09/11 06:35:11;;;;;;;2.63;2.43;;;;;;;;;;5051733;28;20603;-77
2022/09/11 06:37:38;;;;;;;3.20;2.90;;;;;;;;;;5052195;28;20259;-77
2022/09/11 06:40:06;;;;;;;3.77;3.13;;;;;;;;;;5052578;28;20724;-77
2022/09/11 06:42:33;;;;;;;2.60;2.40;;;;;;;;;;5052654;28;20213;-77
2022/09/11 06:45:01;;;;;;;3.10;2.40;;;;;;;;;;5050625;28;20225;-77
2022/09/11 06:47:28;;;;;;;2.60;2.40;;;;;;;;;;5052265;28;20692;-76
2022/09/11 06:49:55;;;;;;;2.37;2.27;;;;;;;;;;5052296;28;20206;-77
2022/09/11 06:52:22;;;;;;;2.67;2.47;;;;;;;;;;5052514;28;20234;-77
2022/09/11 06:54:49;;;;;;;2.93;2.73;;;;;;;;;;5051324;28;20279;-76
2022/09/11 06:57:16;;;;;;;2.50;2.30;;;;;;;;;;5052000;28;20206;-77
2022/09/11 06:59:43;;;;;;;3.37;2.90;;;;;;;;;;5048676;28;20206;-77
2022/09/11 07:02:11;;;;;;;2.83;2.63;;;;;;;;;;5051376;28;20591;-77
2022/09/11 07:04:38;;;;;;;3.70;3.50;;;;;;;;;;5052042;28;20206;-77
2022/09/11 07:07:05;;;;;;;3.50;3.17;;;;;;;;;;5051786;28;20202;-77
2022/09/11 07:09:32;;;;;;;2.37;1.90;;;;;;;;;;5051869;28;20209;-77
2022/09/11 07:11:58;;;;;;;3.47;3.17;;;;;;;;;;5051757;28;20202;-77
2022/09/11 07:14:25;;;;;;;2.67;2.47;;;;;;;;;;5051759;28;20275;-77
2022/09/11 07:16:54;;;;;;;2.13;2.03;;;;;;;;;;5052099;28;20194;-77
2022/09/11 07:19:24;;;;;;;3.07;2.87;;;;;;;;;;5051754;28;20248;-77
2022/09/11 07:21:51;;;;;;;3.80;3.10;;;;;;;;;;5038293;28;20677;-77
2022/09/11 07:24:18;;;;;;;2.40;2.20;;;;;;;;;;5031312;28;20203;-77
2022/09/11 07:26:45;;;;;;;2.33;2.10;;;;;;;;;;5048481;28;20198;-76
2022/09/11 07:29:12;;;;;;;3.10;2.90;;;;;;;;;;5051113;28;20202;-76
2022/09/11 07:31:40;;;;;;;2.87;2.67;;;;;;;;;;5051207;28;20221;-77
2022/09/11 07:34:06;;;;;;;2.83;2.60;;;;;;;;;;5051163;28;20213;-78
2022/09/11 07:36:36;;;;;;;2.50;2.30;;;;;;;;;;5051040;28;20198;-76
2022/09/11 07:39:03;;;;;;;2.83;2.63;;;;;;;;;;5051609;28;20202;-77
2022/09/11 07:41:30;;;;;;;2.37;2.17;;;;;;;;;;5051532;28;20213;-77
2022/09/11 07:43:59;;;;;;;1.97;1.87;;;;;;;;;;5051398;28;20292;-76
2022/09/11 07:46:26;;;;;;;2.60;2.20;;;;;;;;;;5050210;28;20210;-76
2022/09/11 07:48:53;;;;;;;2.83;2.63;;;;;;;;;;5051445;28;20331;-75
2022/09/11 07:51:20;;;;;;;2.00;1.90;;;;;;;;;;5050764;28;20209;-76
2022/09/11 07:53:51;;;;;;;2.07;1.97;;;;;;;;;;5051109;28;20205;-76
2022/09/11 07:56:19;;;;;;;3.17;2.93;;;;;;;;;;5051335;28;20209;-76
2022/09/11 07:58:46;;;;;;;3.80;2.00;;;;;;;;;;5051038;28;20201;-76
2022/09/11 08:01:15;;;;;;;1.80;1.70;;;;;;;;;;5051010;28;20217;-76
2022/09/11 08:03:42;;;;;;;2.40;2.20;;;;;;;;;;5050697;28;20699;-76
2022/09/11 08:06:11;;;;;;;2.40;2.20;;;;;;;;;;5051094;28;20198;-76
2022/09/11 08:08:38;;;;;;;2.90;2.70;;;;;;;;;;5051399;28;20742;-75
2022/09/11 08:11:08;;;;;;;2.67;2.47;;;;;;;;;;5050766;28;20566;-76
2022/09/11 08:13:35;;;;;;;2.27;2.10;;;;;;;;;;5050714;28;20202;-76
2022/09/11 08:16:03;;;;;;;2.10;1.93;;;;;;;;;;5050719;28;20218;-76
2022/09/11 08:18:30;;;;;;;2.50;1.77;;;;;;;;;;5050511;28;20206;-76
2022/09/11 08:21:02;;;;;;;2.70;2.50;;;;;;;;;;5050523;28;20276;-76
2022/09/11 08:23:30;;;;;;;2.28;2.10;;;;;;;;;;5050992;28;20225;-76
2022/09/11 08:26:04;;;;;;;2.27;2.07;;;;;;;;;;5050301;28;20205;-76
2022/09/11 08:28:32;;;;;;;2.03;1.83;;;;;;;;;;5050679;28;20724;-76
2022/09/11 08:31:00;;;;;;;1.77;1.67;;;;;;;;;;5050077;28;20205;-75
2022/09/11 08:33:27;;;;;;;1.88;1.77;;;;;;;;;;5050625;28;20283;-76
2022/09/11 08:35:54;;;;;;;2.08;1.98;;;;;;;;;;5050133;28;20308;-76
2022/09/11 08:38:21;;;;;;;1.85;1.67;;;;;;;;;;5050734;28;20206;-76
2022/09/11 08:40:48;;;;;;;1.85;1.75;;;;;;;;;;5050391;28;20206;-76
2022/09/11 08:43:20;;;;;;;1.98;1.88;;;;;;;;;;5050051;28;20679;-75
2022/09/11 08:45:50;;;;;;;3.20;2.17;;;;;;;;;;5050543;28;20236;-76
2022/09/11 08:48:20;;;;;;;1.83;1.73;;;;;;;;;;5050238;28;20209;-76
2022/09/11 08:50:48;;;;;;;2.20;2.10;;;;;;;;;;5050260;28;20197;-76
2022/09/11 08:53:17;;;;;;;2.08;1.77;;;;;;;;;;5050352;28;20583;-76
2022/09/11 08:55:47;;;;;;;1.85;1.75;;;;;;;;;;5050110;28;20229;-76
2022/09/11 08:58:19;;;;;;;1.75;1.65;;;;;;;;;;5048521;28;20225;-76
2022/09/11 09:00:55;;;;;;;1.42;1.33;;;;;;;;;;5049476;28;20696;-76
2022/09/11 09:03:42;;;;;;;1.50;1.40;;;;;;;;;;5047073;28;20197;-75
2022/09/11 09:06:29;;;;;;;1.63;1.52;;;;;;;;;;5049912;28;20208;-76
2022/09/11 09:09:03;;;;;;;1.70;1.60;;;;;;;;;;5049724;28;20201;-76
2022/09/11 09:11:39;;;;;;;1.75;1.50;;;;;;;;;;5050050;28;20625;-76
2022/09/11 09:14:23;;;;;;;2.10;1.92;;;;;;;;;;5050438;28;20197;-76
2022/09/11 09:16:56;;;;;;;1.70;1.60;;;;;;;;;;5048276;28;20775;-76
2022/09/11 09:19:28;;;;;;;1.67;1.58;;;;;;;;;;5049501;28;20209;-76
2022/09/11 09:22:03;;;;;;;4.38;4.03;;;;;;;;;;5049556;28;20608;-76
2022/09/11 09:24:32;;;;;;;3.10;2.90;;;;;;;;;;5049542;28;20202;-76
2022/09/11 09:26:59;;;;;;;1.63;1.52;;;;;;;;;;5048919;28;20229;-76
2022/09/11 09:29:30;;;;;;;2.08;1.90;;;;;;;;;;5049376;28;20198;-76
2022/09/11 09:32:02;;;;;;;1.52;1.42;;;;;;;;;;5049327;28;20205;-75
2022/09/11 09:34:31;;;;;;;1.27;1.27;;;;;;;;;;5049148;28;20205;-75
2022/09/11 09:37:04;;;;;;;1.65;1.60;;;;;;;;;;5049403;28;20699;-76
2022/09/11 09:39:31;;;;;;;1.95;1.85;;;;;;;;;;5049627;28;20672;-76
2022/09/11 09:42:13;;;;;;;1.15;1.15;;;;;;;;;;5049539;28;20202;-75
2022/09/11 09:44:56;;;;;;;1.63;1.52;;;;;;;;;;5049757;28;20240;-75
2022/09/11 09:47:25;;;;;;;2.80;1.90;;;;;;;;;;5049715;28;20202;-76
2022/09/11 09:49:52;;;;;;;1.52;1.42;;;;;;;;;;5049836;28;20202;-76
2022/09/11 09:52:21;;;;;;;1.55;1.45;;;;;;;;;;5049461;28;20210;-75
2022/09/11 09:54:54;;;;;;;1.65;1.55;;;;;;;;;;5049326;28;20222;-76
2022/09/11 09:57:23;;;;;;;1.85;1.75;;;;;;;;;;5049645;28;20695;-76
2022/09/11 09:59:53;;;;;;;1.60;1.50;;;;;;;;;;5049485;28;20205;-75
2022/09/11 10:02:38;;;;;;;1.60;1.50;;;;;;;;;;5049639;28;20212;-76
2022/09/11 10:05:18;;;;;;;1.70;1.60;;;;;;;;;;5045930;28;20206;-76
2022/09/11 10:07:52;;;;;;;1.75;1.33;;;;;;;;;;5045088;28;20225;-75
2022/09/11 10:10:25;;;;;;;2.40;2.20;;;;;;;;;;5049418;28;20218;-76
2022/09/11 10:12:52;;;;;;;1.50;1.40;;;;;;;;;;5049466;28;20198;-75
2022/09/11 10:15:21;;;;;;;1.67;1.50;;;;;;;;;;5049120;28;20259;-75
2022/09/11 10:17:53;;;;;;;1.48;1.38;;;;;;;;;;5049355;28;20206;-75
2022/09/11 10:20:28;;;;;;;1.73;1.63;;;;;;;;;;5052515;28;20205;-76
2022/09/11 10:22:56;;;;;;;1.42;1.33;;;;;;;;;;5052128;28;20201;-76
2022/09/11 10:25:25;;;;;;;1.40;1.30;;;;;;;;;;5051743;28;20202;-76
2022/09/11 10:28:04;;;;;;;1.33;1.30;;;;;;;;;;5050893;28;20201;-76
2022/09/11 10:30:33;;;;;;;1.27;1.20;;;;;;;;;;5051799;28;20198;-75
2022/09/11 10:33:05;;;;;;;1.50;1.40;;;;;;;;;;5032748;28;20197;-76
2022/09/11 10:35:34;;;;;;;1.60;1.50;;;;;;;;;;5050005;28;20309;-76
2022/09/11 10:38:16;;;;;;;2.15;1.60;;;;;;;;;;5048472;28;20280;-77
2022/09/11 10:40:53;;;;;;;2.08;1.98;;;;;;;;;;5044847;28;20208;-76
2022/09/11 10:43:24;;;;;;;1.48;1.38;;;;;;;;;;5049376;28;20201;-76
2022/09/11 10:46:06;;;;;;;1.88;1.77;;;;;;;;;;5050974;28;20817;-76
2022/09/11 10:48:42;;;;;;;1.35;1.35;;;;;;;;;;5052331;28;20214;-75
2022/09/11 10:51:11;;;;;;;1.60;1.50;;;;;;;;;;5052508;28;20281;-76
2022/09/11 10:53:49;;;;;;;1.60;1.50;;;;;;;;;;5052491;28;20217;-76
2022/09/11 10:56:17;;;;;;;1.52;1.42;;;;;;;;;;5050866;28;20233;-76
2022/09/11 10:58:47;;;;;;;1.50;1.40;;;;;;;;;;5051972;28;20662;-76
2022/09/11 11:01:14;;;;;;;1.65;1.55;;;;;;;;;;5047562;28;20702;-76
2022/09/11 11:03:43;;;;;;;2.47;2.28;;;;;;;;;;5050951;28;20194;-76
2022/09/11 11:06:24;;;;;;;2.88;2.10;;;;;;;;;;5050405;28;20206;-75
2022/09/11 11:09:09;;;;;;;2.00;1.90;;;;;;;;;;5049290;28;20198;-76
2022/09/11 11:11:48;;;;;;;1.83;1.73;;;;;;;;;;5051207;28;20193;-76
2022/09/11 11:14:26;;;;;;;1.98;1.88;;;;;;;;;;5051534;28;20237;-76
2022/09/11 11:16:58;;;;;;;2.60;1.70;;;;;;;;;;5051190;28;20225;-76
2022/09/11 11:19:44;;;;;;;2.75;2.00;;;;;;;;;;5051480;28;20195;-76
2022/09/11 11:22:20;;;;;;;1.52;1.42;;;;;;;;;;5051053;28;20202;-76
2022/09/11 11:24:59;;;;;;;1.60;1.50;;;;;;;;;;5051152;28;20737;-76
2022/09/11 11:27:42;;;;;;;1.58;1.48;;;;;;;;;;5051271;28;20201;-76
2022/09/11 11:30:11;;;;;;;1.75;1.65;;;;;;;;;;5050182;28;20618;-76
2022/09/11 11:32:50;;;;;;;1.77;1.67;;;;;;;;;;5049664;28;20578;-76
2022/09/11 11:35:21;;;;;;;2.35;2.13;;;;;;;;;;5049028;28;20217;-76
2022/09/11 11:37:50;;;;;;;2.50;2.30;;;;;;;;;;5083783;28;20598;-76
2022/09/11 11:40:23;;;;;;;2.05;1.75;;;;;;;;;;5050847;28;20206;-76
2022/09/11 11:42:51;;;;;;;1.52;1.42;;;;;;;;;;5050759;28;20289;-75
2022/09/11 11:45:22;;;;;;;1.38;1.33;;;;;;;;;;5051441;28;20237;-76
2022/09/11 11:47:50;;;;;;;2.22;1.15;;;;;;;;;;5031384;28;20229;-76
2022/09/11 11:50:25;;;;;;;1.38;1.27;;;;;;;;;;5048290;28;20236;-76
2022/09/11 11:52:59;;;;;;;1.92;1.73;;;;;;;;;;5050659;28;20205;-75
2022/09/11 11:55:28;;;;;;;1.10;1.10;;;;;;;;;;5050774;28;20229;-76
2022/09/11 11:58:00;;;;;;;1.40;1.30;;;;;;;;;;5050919;28;20202;-75
2022/09/11 12:00:28;;;;;;;2.15;1.95;;;;;;;;;;5050835;28;20570;-75
2022/09/11 12:02:57;;;;;;;1.70;1.60;;;;;;;;;;5051198;28;20202;-76
2022/09/11 12:05:29;;;;;;;1.45;1.40;;;;;;;;;;5037145;28;20209;-76
2022/09/11 12:07:55;;;;;;;1.08;1.08;;;;;;;;;;5050890;28;20198;-76
2022/09/11 12:10:30;;;;;;;1.42;1.33;;;;;;;;;;5050868;28;20221;-76
2022/09/11 12:12:59;;;;;;;1.50;1.40;;;;;;;;;;5051038;28;20643;-76
2022/09/11 12:15:29;;;;;;;1.80;1.70;;;;;;;;;;5049030;28;20696;-76
2022/09/11 12:18:01;;;;;;;1.63;1.52;;;;;;;;;;5050188;28;20260;-76
2022/09/11 12:20:33;;;;;;;1.45;1.35;;;;;;;;;;5050602;28;20198;-76
2022/09/11 12:23:00;;;;;;;1.38;1.27;;;;;;;;;;5051027;28;20212;-76
2022/09/11 12:25:50;;;;;;;1.50;1.38;;;;;;;;;;5050712;28;20293;-76
2022/09/11 12:28:24;;;;;;;1.80;1.70;;;;;;;;;;5050596;28;20213;-76
2022/09/11 12:31:00;;;;;;;1.67;1.52;;;;;;;;;;5050275;28;20200;-76
2022/09/11 12:33:50;;;;;;;1.65;1.55;;;;;;;;;;5050452;28;20197;-76
2022/09/11 12:36:23;;;;;;;1.25;1.25;;;;;;;;;;5038541;28;20228;-76
2022/09/11 12:38:53;;;;;;;1.58;1.48;;;;;;;;;;5050468;28;20202;-76
2022/09/11 12:41:26;;;;;;;1.70;1.60;;;;;;;;;;5050437;28;20237;-75
2022/09/11 12:43:55;;;;;;;2.42;2.28;;;;;;;;;;5050468;28;20570;-75
2022/09/11 12:47:18;;;;;;;1.40;1.30;;;;;;;;;;5050310;28;20229;-76
2022/09/11 12:49:53;;;;;;;2.00;1.90;;;;;;;;;;5008444;28;20207;-76
2022/09/11 12:52:32;;;;;;;1.65;1.42;;;;;;;;;;5008741;28;20203;-76
2022/09/11 12:55:03;;;;;;;1.60;1.50;;;;;;;;;;5033042;28;20206;-76
2022/09/11 12:57:34;;;;;;;1.52;1.42;;;;;;;;;;5049692;28;20590;-76
2022/09/11 13:00:04;;;;;;;1.40;1.30;;;;;;;;;;5049923;28;20205;-76
2022/09/11 13:02:35;;;;;;;1.23;1.23;;;;;;;;;;5049926;28;20208;-77
2022/09/11 13:05:03;;;;;;;1.48;1.38;;;;;;;;;;5049955;28;20635;-76
2022/09/11 13:07:38;;;;;;;1.25;1.15;;;;;;;;;;5050151;28;20209;-76
2022/09/11 13:10:07;;;;;;;1.50;1.40;;;;;;;;;;5049852;28;20213;-75
2022/09/11 13:12:54;;;;;;;1.20;1.13;;;;;;;;;;5050399;28;20716;-76
2022/09/11 13:15:41;;;;;;;1.38;1.27;;;;;;;;;;5049956;28;20205;-76
2022/09/11 13:18:24;;;;;;;1.30;1.30;;;;;;;;;;5050248;28;20260;-76
2022/09/11 13:21:03;;;;;;;1.20;1.20;;;;;;;;;;5048591;28;20673;-76
2022/09/11 13:23:31;;;;;;;1.45;1.38;;;;;;;;;;5049993;28;20202;-76
2022/09/11 13:25:58;;;;;;;1.35;1.25;;;;;;;;;;5049819;28;20235;-76
2022/09/11 13:28:27;;;;;;;1.20;1.20;;;;;;;;;;5050418;28;20205;-76
2022/09/11 13:31:00;;;;;;;1.17;1.17;;;;;;;;;;5048615;28;20677;-76
2022/09/11 13:33:28;;;;;;;1.42;1.33;;;;;;;;;;5049132;28;20240;-76
2022/09/11 13:35:57;;;;;;;1.17;1.08;;;;;;;;;;5049858;28;20305;-77
2022/09/11 13:38:27;;;;;;;1.33;1.20;;;;;;;;;;5049821;28;20285;-76
2022/09/11 13:40:56;;;;;;;2.20;2.05;;;;;;;;;;5049715;28;20194;-76
2022/09/11 13:43:28;;;;;;;2.45;1.83;;;;;;;;;;5049454;28;20578;-75
2022/09/11 13:46:30;;;;;;;1.73;1.63;;;;;;;;;;5052206;28;20325;-76
2022/09/11 13:48:59;;;;;;;1.45;1.35;;;;;;;;;;5023795;28;20217;-76
2022/09/11 13:51:30;;;;;;;1.70;1.60;;;;;;;;;;5040564;28;20205;-76
2022/09/11 13:54:02;;;;;;;1.23;1.20;;;;;;;;;;5051419;28;20221;-76
2022/09/11 13:56:46;;;;;;;1.20;1.17;;;;;;;;;;5045330;28;20709;-76
2022/09/11 13:59:37;;;;;;;1.00;1.00;;;;;;;;;;5053098;28;20194;-76
2022/09/11 14:02:07;;;;;;;1.55;1.35;;;;;;;;;;5053070;28;20205;-75
2022/09/11 14:04:40;;;;;;;1.20;1.10;;;;;;;;;;5052691;28;20205;-75
2022/09/11 14:07:15;;;;;;;1.20;1.20;;;;;;;;;;5052996;28;20202;-76
2022/09/11 14:09:47;;;;;;;1.17;1.17;;;;;;;;;;5053668;28;20206;-76
2022/09/11 14:12:15;;;;;;;1.40;1.30;;;;;;;;;;5052919;28;20600;-76
2022/09/11 14:14:45;;;;;;;1.02;1.02;;;;;;;;;;5052765;28;20241;-76
2022/09/11 14:17:16;;;;;;;0.98;0.98;;;;;;;;;;5053354;28;20287;-76
2022/09/11 14:19:44;;;;;;;1.17;1.17;;;;;;;;;;5053057;28;20201;-76
2022/09/11 14:22:15;;;;;;;1.33;1.23;;;;;;;;;;5053036;28;20198;-76
2022/09/11 14:24:51;;;;;;;0.82;0.82;;;;;;;;;;5052729;28;20289;-76
2022/09/11 14:27:37;;;;;;;1.20;1.10;;;;;;;;;;5052715;28;20202;-76
2022/09/11 14:30:24;;;;;;;1.48;1.38;;;;;;;;;;5044607;28;20205;-76
2022/09/11 14:33:07;;;;;;;1.23;1.17;;;;;;;;;;5052863;28;20734;-75
2022/09/11 14:35:36;;;;;;;1.05;1.05;;;;;;;;;;5052117;28;20232;-76
2022/09/11 14:38:02;;;;;;;1.40;1.30;;;;;;;;;;5052716;28;20604;-76
2022/09/11 14:40:29;;;;;;;0.88;0.88;;;;;;;;;;5052521;28;20209;-75
2022/09/11 14:42:57;;;;;;;1.13;1.02;;;;;;;;;;5052955;28;20209;-76
2022/09/11 14:45:25;;;;;;;1.15;1.15;;;;;;;;;;5050513;28;20221;-76
2022/09/11 14:47:52;;;;;;;1.45;1.13;;;;;;;;;;5052866;28;20209;-75
2022/09/11 14:50:19;;;;;;;0.98;0.98;;;;;;;;;;5052146;28;20213;-76
2022/09/11 14:52:45;;;;;;;1.30;1.20;;;;;;;;;;5052532;28;20202;-76
2022/09/11 14:55:14;;;;;;;1.10;1.10;;;;;;;;;;5052193;28;20198;-76
2022/09/11 14:57:41;;;;;;;1.20;1.10;;;;;;;;;;5051569;28;21027;-76
2022/09/11 15:00:15;;;;;;;1.15;1.05;;;;;;;;;;5052231;28;20240;-76
2022/09/11 15:02:45;;;;;;;1.60;1.50;;;;;;;;;;5052402;28;20225;-76
2022/09/11 15:05:15;;;;;;;1.10;1.10;;;;;;;;;;5052415;28;20255;-76